LEBA/ODB METAR and TAF weather

Enter ICAO airport designator
Station Type Date Time Source
LEBA METAR 2020/09/23 03:00 UTC NOAA

LEBA 230300Z AUTO 24002KT CAVOK 18/15 Q1015


Station Type Date Time Source
LEBA Decoded METAR 2020/09/23 03:00 UTC NOAA

Cordoba / Aeropuerto, Spain (LEBA) 37-51N 004-51W 92M
Sep 22, 2020 - 11:00 PM EDT / 2020.09.23 0300 UTC
Wind: from the WSW (240 degrees) at 2 MPH (2 KT):0
Visibility: greater than 7 mile(s):0
Temperature: 64 F (18 C)
Dew Point: 59 F (15 C)
Relative Humidity: 82%
Pressure (altimeter): 29.97 in. Hg (1015 hPa)
ob: LEBA 230300Z AUTO 24002KT CAVOK 18/15 Q1015
cycle: 3

Station Type Date Time Source
LEBA TAF 2020/09/23 03:27 UTC NOAA

TAF TAF LEBA 230200Z 2303/2403 25009KT CAVOK TX30/2316Z TN18/2306Z

Example: see airport list